createdAt,value
2022-09-02T00:02:25.496Z,97694.50
2022-09-02T00:04:53.772Z,97704.59
2022-09-02T00:07:21.964Z,97705.84
2022-09-02T00:09:50.610Z,97687.31
2022-09-02T00:12:18.834Z,97626.66
2022-09-02T00:14:46.994Z,97686.69
2022-09-02T00:17:16.610Z,97699.94
2022-09-02T00:19:44.860Z,97706.19
2022-09-02T00:22:13.692Z,97699.88
2022-09-02T00:24:41.967Z,97619.06
2022-09-02T00:27:10.180Z,97707.66
2022-09-02T00:29:39.955Z,97702.88
2022-09-02T00:32:08.367Z,97668.69
2022-09-02T00:34:38.051Z,97693.69
2022-09-02T00:37:06.407Z,97679.22
2022-09-02T00:39:34.708Z,97669.31
2022-09-02T00:42:04.589Z,97684.38
2022-09-02T00:44:34.196Z,97675.31
2022-09-02T00:47:02.569Z,97675.38
2022-09-02T00:49:33.100Z,97675.38
2022-09-02T00:52:06.216Z,97636.81
2022-09-02T00:54:38.847Z,97677.91
2022-09-02T00:57:11.582Z,97666.69
2022-09-02T00:59:56.084Z,97679.28
2022-09-02T01:02:26.281Z,97644.84
2022-09-02T01:04:57.038Z,97671.75
2022-09-02T01:07:31.971Z,97678.75
2022-09-02T01:10:02.079Z,97675.03
2022-09-02T01:12:31.949Z,97669.47
2022-09-02T01:15:00.723Z,97675.25
2022-09-02T01:17:29.255Z,97670.19
2022-09-02T01:20:03.116Z,97674.66
2022-09-02T01:22:34.170Z,97647.16
2022-09-02T01:25:06.837Z,97638.84
2022-09-02T01:27:35.320Z,97592.34
2022-09-02T01:30:03.568Z,97677.81
2022-09-02T01:32:32.260Z,97673.31
2022-09-02T01:35:00.695Z,97662.94
2022-09-02T01:37:29.052Z,97671.78
2022-09-02T01:39:58.761Z,97671.84
2022-09-02T01:42:27.345Z,97627.88
2022-09-02T01:44:55.641Z,97658.28
2022-09-02T01:47:25.841Z,97652.91
2022-09-02T01:49:55.127Z,97671.69
2022-09-02T01:52:25.568Z,97668.03
2022-09-02T01:54:54.138Z,97674.72
2022-09-02T01:57:24.926Z,97674.78
2022-09-02T01:59:53.698Z,97660.84
2022-09-02T02:02:22.453Z,97657.63
2022-09-02T02:04:51.558Z,97652.16
2022-09-02T02:07:22.722Z,97667.47
2022-09-02T02:09:51.532Z,97660.41
2022-09-02T02:12:21.478Z,97676.34
2022-09-02T02:14:51.249Z,97656.41
2022-09-02T02:17:20.579Z,97665.69
2022-09-02T02:19:48.869Z,97655.56
2022-09-02T02:22:17.661Z,97653.19
2022-09-02T02:24:45.991Z,97655.72
2022-09-02T02:27:14.238Z,97648.75
2022-09-02T02:29:42.590Z,97655.66
2022-09-02T02:32:12.253Z,97646.22
2022-09-02T02:34:40.602Z,97655.88
2022-09-02T02:37:08.847Z,97648.88
2022-09-02T02:39:37.099Z,97662.09
2022-09-02T02:42:05.720Z,97632.94
2022-09-02T02:44:34.027Z,97654.88
2022-09-02T02:47:02.617Z,97649.50
2022-09-02T02:49:32.650Z,97654.41
2022-09-02T02:52:00.899Z,97646.19
2022-09-02T02:54:34.980Z,97643.44
2022-09-02T02:57:04.499Z,97643.44
2022-09-02T02:59:32.979Z,97641.34
2022-09-02T03:02:01.419Z,97634.66
2022-09-02T03:04:30.086Z,97634.19
2022-09-02T03:06:59.816Z,97637.91
2022-09-02T03:09:28.099Z,97638.38
2022-09-02T03:11:56.367Z,97637.63
2022-09-02T03:14:24.861Z,97640.34
2022-09-02T03:16:53.163Z,97638.94
2022-09-02T03:19:21.477Z,97639.31
2022-09-02T03:21:49.735Z,97626.38
2022-09-02T03:24:19.349Z,97601.66
2022-09-02T03:26:48.143Z,97636.81
2022-09-02T03:29:16.379Z,97632.31
2022-09-02T03:31:44.700Z,97637.16
2022-09-02T03:34:13.337Z,97612.72
2022-09-02T03:36:44.352Z,97625.72
2022-09-02T03:39:15.537Z,97631.06
2022-09-02T03:41:45.339Z,97623.44
2022-09-02T03:44:13.633Z,97634.72
2022-09-02T03:46:41.906Z,97635.38
2022-09-02T03:49:10.356Z,97616.06
2022-09-02T03:51:41.699Z,97632.78
2022-09-02T03:54:10.524Z,97618.75
2022-09-02T03:56:39.293Z,97605.31
2022-09-02T03:59:09.642Z,97633.09
2022-09-02T04:01:38.383Z,97639.22
2022-09-02T04:04:08.728Z,97624.59
2022-09-02T04:06:37.018Z,97631.22
2022-09-02T04:09:06.168Z,97627.00
2022-09-02T04:11:34.558Z,97608.16
2022-09-02T04:14:03.085Z,97629.41
2022-09-02T04:16:32.831Z,97592.69
2022-09-02T04:19:02.160Z,97639.34
2022-09-02T04:21:33.541Z,97627.53
2022-09-02T04:24:01.936Z,97635.69
2022-09-02T04:26:30.757Z,97598.75
2022-09-02T04:28:59.084Z,97635.19
2022-09-02T04:31:30.223Z,97527.69
2022-09-02T04:34:00.886Z,97597.00
2022-09-02T04:36:30.829Z,97508.47
2022-09-02T04:39:00.081Z,97637.41
2022-09-02T04:41:31.039Z,97644.69
2022-09-02T04:44:00.839Z,97639.84
2022-09-02T04:46:34.524Z,97619.50
2022-09-02T04:49:05.729Z,97641.47
2022-09-02T04:51:34.207Z,97644.06
2022-09-02T04:54:03.014Z,97646.72
2022-09-02T04:56:32.521Z,97644.84
2022-09-02T04:59:01.331Z,97632.34
2022-09-02T05:01:32.844Z,97622.44
2022-09-02T05:04:03.127Z,97646.81
2022-09-02T05:06:32.855Z,97654.53
2022-09-02T05:09:02.160Z,97656.66
2022-09-02T05:11:33.181Z,97593.47
2022-09-02T05:14:04.447Z,97654.41
2022-09-02T05:16:36.829Z,97629.44
2022-09-02T05:19:06.699Z,97637.94
2022-09-02T05:21:36.483Z,97621.84
2022-09-02T05:24:05.108Z,97633.69
2022-09-02T05:26:36.416Z,97654.88
2022-09-02T05:29:07.122Z,97616.41
2022-09-02T05:31:35.825Z,97660.63
2022-09-02T05:34:04.390Z,97659.56
2022-09-02T05:36:33.126Z,97659.06
2022-09-02T05:39:04.200Z,97661.50
2022-09-02T05:41:33.520Z,97658.53
2022-09-02T05:44:03.890Z,97639.22
2022-09-02T05:46:33.097Z,97651.22
2022-09-02T05:49:07.795Z,97651.78
2022-09-02T05:51:41.158Z,97649.41
2022-09-02T05:54:13.926Z,97648.19
2022-09-02T05:56:44.870Z,97649.19
2022-09-02T05:59:14.290Z,97644.94
2022-09-02T06:01:43.217Z,97643.47
2022-09-02T06:04:11.509Z,97647.09
2022-09-02T06:06:39.898Z,97617.28
2022-09-02T06:09:09.627Z,97621.63
2022-09-02T06:11:40.776Z,97586.22
2022-09-02T06:14:09.977Z,97650.28
2022-09-02T06:16:39.687Z,97621.09
2022-09-02T06:19:08.333Z,97650.78
2022-09-02T06:21:37.616Z,97662.66
2022-09-02T06:24:07.553Z,97658.41
2022-09-02T06:26:36.234Z,97626.75
2022-09-02T06:29:06.661Z,97609.66
2022-09-02T06:31:35.606Z,97654.72
2022-09-02T06:34:04.896Z,97659.97
2022-09-02T06:36:33.690Z,97623.09
2022-09-02T06:39:02.534Z,97647.84
2022-09-02T06:41:33.747Z,97660.31
2022-09-02T06:44:06.960Z,97651.47
2022-09-02T06:46:39.579Z,97665.69
2022-09-02T06:49:09.589Z,97665.09
2022-09-02T06:51:40.411Z,97591.84
2022-09-02T06:54:14.002Z,97669.03
2022-09-02T06:56:47.259Z,97644.16
2022-09-02T06:59:17.695Z,97659.53
2022-09-02T07:01:48.312Z,97660.00
2022-09-02T07:04:34.571Z,97663.13
2022-09-02T07:07:05.510Z,97642.00
2022-09-02T07:09:33.813Z,97653.09
2022-09-02T07:12:05.467Z,97653.19
2022-09-02T07:14:38.658Z,97654.78
2022-09-02T07:17:09.823Z,97667.31
2022-09-02T07:19:38.777Z,97665.19
2022-09-02T07:22:07.910Z,97662.19
2022-09-02T07:24:36.248Z,97649.72
2022-09-02T07:27:06.054Z,97653.41
2022-09-02T07:29:34.987Z,97664.44
2022-09-02T07:32:03.467Z,97661.16
2022-09-02T07:34:33.375Z,97649.66
2022-09-02T07:37:06.187Z,97659.75
2022-09-02T07:39:36.967Z,97647.00
2022-09-02T07:42:07.577Z,97661.41
2022-09-02T07:44:37.350Z,97654.94
2022-09-02T07:47:06.157Z,97669.50
2022-09-02T07:52:24.263Z,97662.38
2022-09-02T07:54:52.533Z,97668.66
2022-09-02T07:57:21.337Z,97663.81
2022-09-02T07:59:49.666Z,97659.50
2022-09-02T08:02:18.241Z,97660.56
2022-09-02T08:04:48.008Z,97657.63
2022-09-02T08:07:17.059Z,97671.63
2022-09-02T08:09:45.316Z,97657.28
2022-09-02T08:12:13.686Z,97642.19
2022-09-02T08:14:41.951Z,97659.75
2022-09-02T08:17:10.880Z,97645.78
2022-09-02T08:19:39.142Z,97654.28
2022-09-02T08:22:08.886Z,97661.31
2022-09-02T08:24:37.162Z,97644.50
2022-09-02T08:27:05.499Z,97653.47
2022-09-02T08:29:33.941Z,97647.38
2022-09-02T08:32:03.265Z,97648.13
2022-09-02T08:34:31.791Z,97648.78
2022-09-02T08:37:00.142Z,97640.47
2022-09-02T08:39:29.859Z,97642.47
2022-09-02T08:42:09.136Z,97627.03
2022-09-02T08:44:40.202Z,97652.19
2022-09-02T08:47:14.666Z,97592.31
2022-09-02T08:49:46.867Z,97647.19
2022-09-02T08:52:20.329Z,97647.06
2022-09-02T08:54:55.746Z,97639.81
2022-09-02T08:57:27.811Z,97631.28
2022-09-02T09:00:01.235Z,97640.25
2022-09-02T09:02:47.456Z,97628.22
2022-09-02T09:05:25.117Z,97630.75
2022-09-02T09:08:04.920Z,97636.97
2022-09-02T09:10:44.486Z,97625.75
2022-09-02T09:13:28.858Z,97632.81
2022-09-02T09:16:08.281Z,97609.81
2022-09-02T09:18:40.947Z,97578.16
2022-09-02T09:21:10.433Z,97568.09
2022-09-02T09:23:41.230Z,97625.69
2022-09-02T09:26:13.247Z,97621.19
2022-09-02T09:28:43.828Z,97623.28
2022-09-02T09:31:15.977Z,97603.63
2022-09-02T09:33:57.546Z,97620.66
2022-09-02T09:36:48.241Z,97608.94
2022-09-02T09:39:22.469Z,97602.38
2022-09-02T09:41:53.443Z,97602.56
2022-09-02T09:44:40.511Z,97611.25
2022-09-02T09:47:14.727Z,97601.28
2022-09-02T09:49:46.259Z,97616.75
2022-09-02T09:52:25.003Z,97616.00
2022-09-02T09:55:22.723Z,97610.13
2022-09-02T09:58:09.029Z,97599.31
2022-09-02T10:00:38.486Z,97592.00
2022-09-02T10:03:09.268Z,97605.72
2022-09-02T10:05:39.354Z,97602.97
2022-09-02T10:08:22.038Z,97596.16
2022-09-02T10:11:02.284Z,97561.25
2022-09-02T10:13:33.935Z,97596.88
2022-09-02T10:16:20.582Z,97587.81
2022-09-02T10:18:56.538Z,97609.44
2022-09-02T10:21:45.095Z,97596.34
2022-09-02T10:24:38.566Z,97595.63
2022-09-02T10:27:10.049Z,97582.16
2022-09-02T10:29:55.563Z,97588.81
2022-09-02T10:32:39.849Z,97571.81
2022-09-02T10:35:16.226Z,97570.22
2022-09-02T10:38:08.685Z,97592.75
2022-09-02T10:40:43.130Z,97587.63
2022-09-02T10:43:20.577Z,97565.03
2022-09-02T10:45:53.986Z,97576.28
2022-09-02T10:48:32.587Z,97578.91
2022-09-02T10:51:06.205Z,97563.72
2022-09-02T10:53:44.661Z,97583.09
2022-09-02T10:56:18.320Z,97562.56
2022-09-02T10:58:54.696Z,97578.03
2022-09-02T11:01:27.821Z,97562.09
2022-09-02T11:04:04.766Z,97535.22
2022-09-02T11:07:01.268Z,97558.78
2022-09-02T11:09:34.327Z,97562.84
2022-09-02T11:12:09.598Z,97555.34
2022-09-02T11:14:48.806Z,97545.00
2022-09-02T11:17:26.306Z,97565.25
2022-09-02T11:20:00.468Z,97543.03
2022-09-02T11:22:36.198Z,97540.47
2022-09-02T11:25:10.696Z,97540.84
2022-09-02T11:27:43.425Z,97476.59
2022-09-02T11:30:16.447Z,97538.81
2022-09-02T11:32:54.975Z,97499.22
2022-09-02T11:35:28.328Z,97531.00
2022-09-02T11:38:01.908Z,97519.06
2022-09-02T11:40:38.841Z,97536.09
2022-09-02T11:43:33.371Z,97539.50
2022-09-02T11:46:34.332Z,97518.28
2022-09-02T11:49:30.576Z,97529.59
2022-09-02T11:52:10.540Z,97510.41
2022-09-02T11:54:44.208Z,97523.00
2022-09-02T11:57:16.188Z,97515.88
2022-09-02T12:00:08.740Z,97485.69
2022-09-02T12:02:41.887Z,97518.94
2022-09-02T12:06:06.337Z,97517.34
2022-09-02T12:09:02.926Z,97509.63
2022-09-02T12:12:02.567Z,97512.44
2022-09-02T12:15:07.813Z,97495.06
2022-09-02T12:17:55.347Z,97510.75
2022-09-02T12:21:15.988Z,97497.59
2022-09-02T12:24:20.639Z,97501.84
2022-09-02T12:27:11.619Z,97495.09
2022-09-02T12:29:39.963Z,97493.56
2022-09-02T12:32:10.259Z,97499.72
2022-09-02T12:34:55.010Z,97410.13
2022-09-02T12:37:53.898Z,97484.75
2022-09-02T12:40:35.396Z,97481.53
2022-09-02T12:43:18.342Z,97483.59
2022-09-02T12:45:48.088Z,97473.97
2022-09-02T12:48:30.390Z,97480.03
2022-09-02T12:51:07.087Z,97469.56
2022-09-02T12:53:39.627Z,97469.63
2022-09-02T12:56:20.122Z,97460.81
2022-09-02T12:58:53.472Z,97467.69
2022-09-02T13:01:31.389Z,97466.91
2022-09-02T13:04:27.374Z,97463.72
2022-09-02T13:07:23.777Z,97443.75
2022-09-02T13:10:11.018Z,97450.50
2022-09-02T13:13:10.111Z,97459.63
2022-09-02T13:15:58.511Z,97452.31
2022-09-02T13:18:49.458Z,97442.28
2022-09-02T13:21:44.960Z,97440.72
2022-09-02T13:24:46.929Z,97446.84
2022-09-02T13:27:40.002Z,97426.19
2022-09-02T13:30:22.219Z,97446.00
2022-09-02T13:33:02.131Z,97452.22
2022-09-02T13:35:30.554Z,97450.53
2022-09-02T13:38:01.816Z,97420.03
2022-09-02T13:40:34.029Z,97445.91
2022-09-02T13:43:04.239Z,97428.81
2022-09-02T13:45:36.006Z,97437.09
2022-09-02T13:48:09.851Z,97445.31
2022-09-02T13:50:43.661Z,97444.34
2022-09-02T13:53:45.425Z,97428.88
2022-09-02T13:56:10.588Z,97441.59
2022-09-02T13:58:46.286Z,97432.25
2022-09-02T14:01:28.660Z,97408.97
2022-09-02T14:04:01.053Z,97364.97
2022-09-02T14:06:33.437Z,97401.56
2022-09-02T14:09:04.150Z,97419.63
2022-09-02T14:11:39.865Z,97396.25
2022-09-02T14:14:08.458Z,97421.84
2022-09-02T14:16:38.136Z,97350.88
2022-09-02T14:19:10.602Z,97419.81
2022-09-02T14:21:46.417Z,97423.28
2022-09-02T14:24:16.250Z,97400.66
2022-09-02T14:26:47.035Z,97424.97
2022-09-02T14:29:17.861Z,97409.41
2022-09-02T14:31:47.307Z,97415.34
2022-09-02T14:34:36.875Z,97411.97
2022-09-02T14:37:20.972Z,97398.97
2022-09-02T14:40:07.255Z,97396.06
2022-09-02T14:42:43.521Z,97415.34
2022-09-02T14:45:13.313Z,97397.19
2022-09-02T14:47:43.036Z,97396.75
2022-09-02T14:50:18.071Z,97401.53
2022-09-02T14:52:50.013Z,97330.81
2022-09-02T14:55:47.151Z,97415.06
2022-09-02T14:58:16.410Z,97418.88
2022-09-02T15:00:47.348Z,97414.50
2022-09-02T15:03:17.548Z,97417.66
2022-09-02T15:05:49.369Z,97376.88
2022-09-02T15:08:18.284Z,97406.94
2022-09-02T15:10:47.060Z,97419.19
2022-09-02T15:13:22.628Z,97422.16
2022-09-02T15:15:52.947Z,97423.84
2022-09-02T15:18:21.322Z,97429.97
2022-09-02T15:20:51.076Z,97396.63
2022-09-02T15:23:19.640Z,97409.59
2022-09-02T15:25:48.641Z,97342.66
2022-09-02T15:28:16.907Z,97428.09
2022-09-02T15:30:45.263Z,97413.13
2022-09-02T15:33:16.786Z,97424.25
2022-09-02T15:35:46.930Z,97402.81
2022-09-02T15:38:17.248Z,97414.34
2022-09-02T15:40:46.254Z,97383.97
2022-09-02T15:43:14.903Z,97421.38
2022-09-02T15:45:47.611Z,97425.47
2022-09-02T15:48:16.887Z,97405.53
2022-09-02T15:50:46.483Z,97419.56
2022-09-02T15:53:17.217Z,97398.34
2022-09-02T15:55:45.415Z,97413.16
2022-09-02T15:58:13.872Z,97403.66
2022-09-02T16:00:44.152Z,97400.75
2022-09-02T16:03:12.579Z,97401.56
2022-09-02T16:05:43.365Z,97403.13
2022-09-02T16:08:11.717Z,97396.84
2022-09-02T16:10:41.558Z,97404.22
2022-09-02T16:13:09.747Z,97401.84
2022-09-02T16:15:38.010Z,97398.91
2022-09-02T16:18:06.341Z,97411.56
2022-09-02T16:20:34.577Z,97403.16
2022-09-02T16:23:02.812Z,97309.84
2022-09-02T16:25:31.117Z,97412.00
2022-09-02T16:28:01.717Z,97418.38
2022-09-02T16:30:30.272Z,97409.53
2022-09-02T16:32:59.903Z,97404.59
2022-09-02T16:35:28.355Z,97412.69
2022-09-02T16:37:57.078Z,97415.38
2022-09-02T16:40:25.318Z,97405.72
2022-09-02T16:42:53.622Z,97405.44
2022-09-02T16:45:23.209Z,97428.19
2022-09-02T16:47:51.426Z,97429.13
2022-09-02T16:50:20.164Z,97425.44
2022-09-02T16:52:48.762Z,97409.91
2022-09-02T16:55:18.901Z,97425.53
2022-09-02T16:57:47.171Z,97041.31
2022-09-02T17:00:17.221Z,97394.88
2022-09-02T17:02:47.073Z,97427.06
2022-09-02T17:05:17.615Z,97427.56
2022-09-02T17:07:46.950Z,97425.47
2022-09-02T17:10:15.538Z,97397.34
2022-09-02T17:12:44.070Z,97406.94
2022-09-02T17:15:12.621Z,97432.69
2022-09-02T17:17:42.467Z,97422.69
2022-09-02T17:20:13.328Z,97420.28
2022-09-02T17:22:41.847Z,97434.22
2022-09-02T17:25:10.715Z,97421.47
2022-09-02T17:27:38.997Z,97401.78
2022-09-02T17:30:11.005Z,97415.47
2022-09-02T17:32:39.725Z,97423.09
2022-09-02T17:35:10.525Z,97441.19
2022-09-02T17:37:40.724Z,97427.09
2022-09-02T17:40:34.864Z,97445.63
2022-09-02T17:43:03.531Z,97446.09
2022-09-02T17:45:32.160Z,97474.22
2022-09-02T17:48:19.218Z,97458.13
2022-09-02T17:50:49.349Z,97457.94
2022-09-02T17:53:19.590Z,97458.91
2022-09-02T17:55:49.776Z,97459.97
2022-09-02T17:58:22.641Z,97458.53
2022-09-02T18:00:58.972Z,97458.72
2022-09-02T18:03:42.265Z,97469.16
2022-09-02T18:06:15.105Z,97450.88
2022-09-02T18:08:53.131Z,97489.16
2022-09-02T18:11:23.410Z,97443.69
2022-09-02T18:14:01.413Z,97484.53
2022-09-02T18:16:36.816Z,97492.28
2022-09-02T18:19:16.447Z,97473.78
2022-09-02T18:21:59.021Z,97492.72
2022-09-02T18:24:44.524Z,97496.13
2022-09-02T18:27:18.492Z,97506.28
2022-09-02T18:30:01.672Z,97514.72
2022-09-02T18:32:48.610Z,97508.97
2022-09-02T18:35:26.310Z,97499.09
2022-09-02T18:38:02.163Z,97513.91
2022-09-02T18:40:44.339Z,97520.59
2022-09-02T18:43:21.065Z,97511.13
2022-09-02T18:45:50.862Z,97515.63
2022-09-02T18:48:23.114Z,97502.59
2022-09-02T18:50:55.853Z,97471.06
2022-09-02T18:53:29.067Z,97519.63
2022-09-02T18:56:03.956Z,97521.19
2022-09-02T18:58:38.460Z,97528.44
2022-09-02T19:01:12.892Z,97514.13
2022-09-02T19:03:41.330Z,97507.72
2022-09-02T19:06:17.939Z,97509.94
2022-09-02T19:08:47.096Z,97460.44
2022-09-02T19:11:18.267Z,97507.81
2022-09-02T19:13:50.361Z,97531.22
2022-09-02T19:16:21.357Z,97536.19
2022-09-02T19:18:50.742Z,97479.44
2022-09-02T19:21:26.017Z,97534.75
2022-09-02T19:23:54.335Z,97542.16
2022-09-02T19:26:25.507Z,97530.25
2022-09-02T19:28:55.706Z,97522.31
2022-09-02T19:31:28.064Z,97530.06
2022-09-02T19:33:58.135Z,97528.56
2022-09-02T19:36:31.210Z,97547.09
2022-09-02T19:39:00.311Z,97534.09
2022-09-02T19:41:30.432Z,97554.38
2022-09-02T19:44:00.565Z,97560.84
2022-09-02T19:47:20.723Z,97464.41
2022-09-02T19:49:18.245Z,97542.84
2022-09-02T19:51:47.417Z,97561.03
2022-09-02T19:54:18.822Z,97556.13
2022-09-02T19:56:48.482Z,97488.53
2022-09-02T19:59:17.314Z,97555.09
2022-09-02T20:01:45.811Z,97549.97
2022-09-02T20:04:14.112Z,97542.22
2022-09-02T20:06:42.352Z,97546.72
2022-09-02T20:09:10.768Z,97552.97
2022-09-02T20:11:41.271Z,97560.50
2022-09-02T20:14:10.968Z,97564.81
2022-09-02T20:16:39.448Z,97544.34
2022-09-02T20:19:07.816Z,97573.84
2022-09-02T20:21:43.484Z,97575.16
2022-09-02T20:24:13.731Z,97580.25
2022-09-02T20:26:51.446Z,97559.50
2022-09-02T20:29:35.461Z,97560.53
2022-09-02T20:32:13.178Z,97553.63
2022-09-02T20:34:55.901Z,97486.09
2022-09-02T20:37:33.665Z,97564.22
2022-09-02T20:40:27.196Z,97499.44
2022-09-02T20:43:36.736Z,97571.44
2022-09-02T20:46:19.404Z,97572.34
2022-09-02T20:49:02.497Z,97547.50
2022-09-02T20:51:37.135Z,97546.16
2022-09-02T20:54:16.005Z,97555.66
2022-09-02T20:56:56.935Z,97560.00
2022-09-02T20:59:34.699Z,97559.97
2022-09-02T21:02:06.255Z,97551.78
2022-09-02T21:04:40.614Z,97555.94
2022-09-02T21:07:15.558Z,97539.91
2022-09-02T21:09:49.766Z,97539.34
2022-09-02T21:12:32.450Z,97535.56
2022-09-02T21:15:08.335Z,97546.13
2022-09-02T21:17:48.280Z,97551.97
2022-09-02T21:20:24.361Z,97546.25
2022-09-02T21:22:58.061Z,97527.09
2022-09-02T21:25:32.271Z,97534.34
2022-09-02T21:28:07.661Z,97527.31
2022-09-02T21:30:40.932Z,97523.38
2022-09-02T21:33:15.236Z,97542.25
2022-09-02T21:35:47.258Z,97511.94
2022-09-02T21:38:20.149Z,97532.41
2022-09-02T21:41:03.554Z,97499.72
2022-09-02T21:43:45.965Z,97526.47
2022-09-02T21:46:23.946Z,97505.53
2022-09-02T21:49:01.821Z,97508.53
2022-09-02T21:51:36.197Z,97520.81
2022-09-02T21:54:16.938Z,97500.25
2022-09-02T21:57:01.620Z,97488.38
2022-09-02T21:59:49.055Z,97518.72
2022-09-02T22:02:26.040Z,97544.38
2022-09-02T22:05:04.820Z,97524.16
2022-09-02T22:07:39.155Z,97512.66
2022-09-02T22:10:15.994Z,97524.81
2022-09-02T22:12:52.047Z,97522.59
2022-09-02T22:15:28.746Z,97510.41
2022-09-02T22:18:04.917Z,97523.09
2022-09-02T22:20:40.827Z,97524.41
2022-09-02T22:23:26.367Z,97514.16
2022-09-02T22:25:56.717Z,97514.56
2022-09-02T22:28:32.602Z,97522.19
2022-09-02T22:31:05.942Z,97533.97
2022-09-02T22:33:38.126Z,97525.41
2022-09-02T22:36:22.710Z,97517.41
2022-09-02T22:38:52.288Z,97525.16
2022-09-02T22:41:26.489Z,97526.78
2022-09-02T22:44:00.914Z,97530.28
2022-09-02T22:46:51.993Z,97466.00
2022-09-02T22:49:46.106Z,97483.34
2022-09-02T22:52:44.832Z,97527.78
2022-09-02T22:55:14.326Z,97466.28
2022-09-02T22:57:49.525Z,97518.34
2022-09-02T23:00:19.142Z,97526.09
2022-09-02T23:02:55.448Z,97511.00
2022-09-02T23:05:45.493Z,97476.81
2022-09-02T23:08:17.633Z,97516.28
2022-09-02T23:10:53.643Z,97513.03
2022-09-02T23:13:33.095Z,97506.44
2022-09-02T23:16:12.164Z,97519.56
2022-09-02T23:18:53.113Z,97520.59
2022-09-02T23:21:29.737Z,97528.91
2022-09-02T23:24:13.512Z,97533.53
2022-09-02T23:26:50.122Z,97516.00
2022-09-02T23:29:26.338Z,97536.91
2022-09-02T23:32:10.044Z,97533.59
2022-09-02T23:34:58.635Z,97528.97
2022-09-02T23:37:38.197Z,97482.44
2022-09-02T23:40:16.662Z,97496.41
2022-09-02T23:42:44.891Z,97539.06
2022-09-02T23:45:21.981Z,97523.81
2022-09-02T23:48:19.893Z,97537.03
2022-09-02T23:51:04.067Z,97345.72
2022-09-02T23:53:40.593Z,97536.28
2022-09-02T23:56:22.375Z,97533.88
2022-09-02T23:59:06.250Z,97531.09
